createdAt,value
2022-08-19T00:01:54.904Z,22.10
2022-08-19T00:04:26.387Z,22.00
2022-08-19T00:06:54.576Z,22.00
2022-08-19T00:09:23.755Z,22.00
2022-08-19T00:11:53.544Z,22.00
2022-08-19T00:14:23.270Z,22.00
2022-08-19T00:16:52.566Z,22.00
2022-08-19T00:19:20.667Z,22.00
2022-08-19T00:21:48.739Z,22.00
2022-08-19T00:24:17.088Z,22.00
2022-08-19T00:26:46.209Z,22.00
2022-08-19T00:29:15.286Z,22.00
2022-08-19T00:31:44.791Z,21.90
2022-08-19T00:34:13.494Z,22.00
2022-08-19T00:36:41.667Z,21.90
2022-08-19T00:39:10.154Z,21.90
2022-08-19T00:41:38.220Z,22.00
2022-08-19T00:44:07.294Z,22.00
2022-08-19T00:46:37.022Z,21.90
2022-08-19T00:49:08.991Z,21.90
2022-08-19T00:51:37.476Z,21.90
2022-08-19T00:54:05.912Z,21.80
2022-08-19T00:56:34.046Z,21.80
2022-08-19T00:59:02.748Z,21.70
2022-08-19T01:01:30.963Z,21.70
2022-08-19T01:03:59.004Z,21.70
2022-08-19T01:06:28.556Z,21.80
2022-08-19T01:08:56.704Z,21.80
2022-08-19T01:11:24.754Z,21.80
2022-08-19T01:13:52.835Z,21.80
2022-08-19T01:16:22.132Z,21.80
2022-08-19T01:18:50.233Z,21.70
2022-08-19T01:21:20.483Z,21.70
2022-08-19T01:23:49.861Z,21.70
2022-08-19T01:26:19.065Z,21.80
2022-08-19T01:28:48.293Z,21.70
2022-08-19T01:31:26.408Z,21.80
2022-08-19T01:33:56.376Z,21.80
2022-08-19T01:36:26.619Z,21.70
2022-08-19T01:38:56.006Z,21.80
2022-08-19T01:41:24.590Z,21.80
2022-08-19T01:44:13.171Z,21.80
2022-08-19T01:46:40.905Z,21.80
2022-08-19T01:49:09.414Z,21.80
2022-08-19T01:51:40.289Z,21.80
2022-08-19T01:54:10.119Z,21.90
2022-08-19T01:56:38.185Z,21.90
2022-08-19T01:59:08.258Z,21.90
2022-08-19T02:01:36.382Z,21.90
2022-08-19T02:04:04.887Z,21.90
2022-08-19T02:06:33.301Z,21.90
2022-08-19T02:09:01.386Z,21.70
2022-08-19T02:11:32.436Z,21.70
2022-08-19T02:14:00.948Z,21.70
2022-08-19T02:16:29.094Z,21.70
2022-08-19T02:18:57.119Z,21.70
2022-08-19T02:21:25.385Z,21.70
2022-08-19T02:23:53.407Z,21.70
2022-08-19T02:26:21.501Z,21.70
2022-08-19T02:28:50.872Z,21.60
2022-08-19T02:31:20.282Z,21.70
2022-08-19T02:33:48.357Z,21.70
2022-08-19T02:36:21.097Z,21.70
2022-08-19T02:38:54.437Z,21.70
2022-08-19T02:41:26.945Z,21.70
2022-08-19T02:44:26.682Z,21.70
2022-08-19T02:46:46.647Z,21.70
2022-08-19T02:49:17.524Z,21.60
2022-08-19T02:51:46.872Z,21.60
2022-08-19T02:54:15.040Z,21.60
2022-08-19T02:56:43.451Z,21.50
2022-08-19T02:59:13.281Z,21.50
2022-08-19T03:01:42.514Z,21.60
2022-08-19T03:04:12.289Z,21.50
2022-08-19T03:06:40.547Z,21.60
2022-08-19T03:09:08.612Z,21.60
2022-08-19T03:11:36.935Z,21.50
2022-08-19T03:14:05.172Z,21.50
2022-08-19T03:16:36.145Z,21.50
2022-08-19T03:19:04.596Z,21.40
2022-08-19T03:21:33.404Z,21.30
2022-08-19T03:24:02.887Z,21.30
2022-08-19T03:26:31.370Z,21.10
2022-08-19T03:29:00.006Z,21.00
2022-08-19T03:31:41.832Z,20.90
2022-08-19T03:34:14.214Z,20.90
2022-08-19T03:36:42.434Z,20.80
2022-08-19T03:39:11.293Z,20.80
2022-08-19T03:41:44.555Z,20.80
2022-08-19T03:44:17.973Z,20.70
2022-08-19T03:46:48.310Z,20.70
2022-08-19T03:49:18.416Z,20.70
2022-08-19T03:51:46.895Z,20.70
2022-08-19T03:54:16.002Z,20.70
2022-08-19T03:56:44.637Z,20.70
2022-08-19T03:59:14.510Z,20.60
2022-08-19T04:01:42.748Z,20.60
2022-08-19T04:04:12.311Z,20.60
2022-08-19T04:06:40.695Z,20.60
2022-08-19T04:09:09.743Z,20.60
2022-08-19T04:11:43.610Z,20.60
2022-08-19T04:14:12.850Z,20.50
2022-08-19T04:16:40.878Z,20.50
2022-08-19T04:19:09.021Z,20.50
2022-08-19T04:21:38.461Z,20.50
2022-08-19T04:24:06.863Z,20.50
2022-08-19T04:26:37.917Z,20.50
2022-08-19T04:29:11.699Z,20.40
2022-08-19T04:31:41.352Z,20.40
2022-08-19T04:34:11.865Z,20.40
2022-08-19T04:36:42.584Z,20.40
2022-08-19T04:39:11.596Z,20.50
2022-08-19T04:41:57.074Z,20.50
2022-08-19T04:44:25.112Z,20.50
2022-08-19T04:46:53.241Z,20.50
2022-08-19T04:49:22.867Z,20.50
2022-08-19T04:51:53.457Z,20.50
2022-08-19T04:54:37.751Z,20.50
2022-08-19T04:57:07.788Z,20.50
2022-08-19T04:59:36.393Z,20.50
2022-08-19T05:02:04.573Z,20.60
2022-08-19T05:04:33.868Z,20.60
2022-08-19T05:07:03.254Z,20.70
2022-08-19T05:09:52.640Z,20.70
2022-08-19T05:12:20.163Z,20.70
2022-08-19T05:14:48.414Z,20.60
2022-08-19T05:17:37.542Z,20.60
2022-08-19T05:20:22.915Z,20.60
2022-08-19T05:22:53.528Z,20.70
2022-08-19T05:25:22.054Z,20.70
2022-08-19T05:27:50.145Z,20.70
2022-08-19T05:30:18.529Z,20.70
2022-08-19T05:32:46.781Z,20.70
2022-08-19T05:35:14.835Z,20.70
2022-08-19T05:37:42.891Z,20.70
2022-08-19T05:40:12.966Z,20.80
2022-08-19T05:42:41.066Z,20.80
2022-08-19T05:45:10.418Z,20.80
2022-08-19T05:47:42.070Z,20.80
2022-08-19T05:50:10.767Z,20.80
2022-08-19T05:52:43.596Z,20.90
2022-08-19T05:55:15.461Z,20.90
2022-08-19T05:57:43.485Z,20.90
2022-08-19T06:00:13.391Z,21.00
2022-08-19T06:02:41.581Z,21.00
2022-08-19T06:05:10.775Z,21.00
2022-08-19T06:07:39.073Z,21.10
2022-08-19T06:10:08.344Z,21.00
2022-08-19T06:12:37.713Z,21.00
2022-08-19T06:15:07.596Z,21.10
2022-08-19T06:17:36.159Z,21.00
2022-08-19T06:20:04.994Z,21.00
2022-08-19T06:22:33.019Z,21.00
2022-08-19T06:25:01.093Z,21.10
2022-08-19T06:27:30.555Z,21.10
2022-08-19T06:29:59.976Z,21.10
2022-08-19T06:32:28.012Z,21.20
2022-08-19T06:34:56.138Z,21.30
2022-08-19T06:37:24.254Z,21.30
2022-08-19T06:39:52.550Z,21.20
2022-08-19T06:42:23.923Z,21.30
2022-08-19T06:44:53.593Z,21.40
2022-08-19T06:47:25.264Z,21.40
2022-08-19T06:50:01.160Z,21.40
2022-08-19T06:52:31.302Z,21.30
2022-08-19T06:55:02.286Z,21.30
2022-08-19T06:57:34.725Z,21.40
2022-08-19T07:00:02.928Z,21.40
2022-08-19T07:02:32.310Z,21.50
2022-08-19T07:05:00.375Z,21.50
2022-08-19T07:07:29.261Z,21.50
2022-08-19T07:09:59.388Z,21.70
2022-08-19T07:12:30.575Z,21.90
2022-08-19T07:14:59.481Z,22.00
2022-08-19T07:17:28.738Z,22.20
2022-08-19T07:19:58.149Z,22.30
2022-08-19T07:22:34.842Z,22.40
2022-08-19T07:25:04.874Z,22.50
2022-08-19T07:27:33.720Z,22.50
2022-08-19T07:30:02.012Z,22.50
2022-08-19T07:32:31.386Z,22.50
2022-08-19T07:35:04.255Z,22.50
2022-08-19T07:37:33.534Z,22.50
2022-08-19T07:40:01.906Z,22.50
2022-08-19T07:42:30.825Z,22.50
2022-08-19T07:44:59.220Z,22.40
2022-08-19T07:47:49.678Z,22.50
2022-08-19T07:50:19.008Z,22.50
2022-08-19T07:52:48.994Z,22.50
2022-08-19T07:55:41.363Z,22.50
2022-08-19T07:58:06.863Z,22.50
2022-08-19T08:00:34.984Z,22.50
2022-08-19T08:03:03.033Z,22.60
2022-08-19T08:05:49.717Z,22.70
2022-08-19T08:08:37.446Z,22.70
2022-08-19T08:11:15.462Z,22.90
2022-08-19T08:13:43.911Z,23.20
2022-08-19T08:16:14.180Z,23.60
2022-08-19T08:18:50.324Z,23.90
2022-08-19T08:21:20.236Z,24.00
2022-08-19T08:23:48.538Z,24.10
2022-08-19T08:26:19.355Z,24.20
2022-08-19T08:28:49.528Z,24.10
2022-08-19T08:31:19.572Z,24.00
2022-08-19T08:33:48.492Z,24.00
2022-08-19T08:36:16.541Z,23.80
2022-08-19T08:38:46.564Z,23.60
2022-08-19T08:41:21.111Z,23.60
2022-08-19T08:43:50.194Z,23.60
2022-08-19T08:46:31.322Z,23.50
2022-08-19T08:49:04.755Z,23.60
2022-08-19T08:51:36.269Z,23.40
2022-08-19T08:54:09.850Z,23.50
2022-08-19T08:56:40.050Z,23.60
2022-08-19T08:59:10.985Z,23.50
2022-08-19T09:01:39.742Z,23.50
2022-08-19T09:04:08.023Z,23.40
2022-08-19T09:06:40.771Z,23.30
2022-08-19T09:09:15.491Z,23.30
2022-08-19T09:11:53.096Z,23.30
2022-08-19T09:14:50.268Z,23.20
2022-08-19T09:17:19.554Z,23.10
2022-08-19T09:19:55.745Z,23.10
2022-08-19T09:22:26.132Z,23.10
2022-08-19T09:24:56.880Z,23.10
2022-08-19T09:27:42.841Z,23.10
2022-08-19T09:30:13.523Z,23.10
2022-08-19T09:32:43.280Z,23.20
2022-08-19T09:35:12.104Z,23.20
2022-08-19T09:37:40.345Z,23.30
2022-08-19T09:40:11.837Z,23.30
2022-08-19T09:42:50.042Z,23.40
2022-08-19T09:45:22.984Z,23.40
2022-08-19T09:47:53.852Z,23.60
2022-08-19T09:50:22.674Z,23.80
2022-08-19T09:52:55.018Z,23.90
2022-08-19T09:55:31.155Z,24.00
2022-08-19T09:58:01.814Z,24.10
2022-08-19T10:00:29.864Z,24.20
2022-08-19T10:02:57.937Z,24.30
2022-08-19T10:05:43.662Z,24.30
2022-08-19T10:08:13.719Z,24.30
2022-08-19T10:10:46.292Z,24.30
2022-08-19T10:13:15.346Z,24.20
2022-08-19T10:15:47.619Z,24.20
2022-08-19T10:18:16.736Z,24.20
2022-08-19T10:20:46.498Z,24.20
2022-08-19T10:23:20.174Z,24.20
2022-08-19T10:25:49.875Z,24.20
2022-08-19T10:28:19.515Z,24.30
2022-08-19T10:30:47.915Z,24.30
2022-08-19T10:33:38.695Z,24.30
2022-08-19T10:36:05.569Z,24.30
2022-08-19T10:38:34.953Z,24.30
2022-08-19T10:41:10.877Z,24.40
2022-08-19T10:43:40.697Z,24.30
2022-08-19T10:46:09.629Z,24.30
2022-08-19T10:48:42.699Z,24.30
2022-08-19T10:51:24.687Z,24.20
2022-08-19T10:53:53.900Z,24.10
2022-08-19T10:56:40.598Z,24.10
2022-08-19T10:59:08.652Z,24.20
2022-08-19T11:01:37.051Z,24.20
2022-08-19T11:04:05.488Z,24.40
2022-08-19T11:06:33.686Z,24.40
2022-08-19T11:09:01.988Z,24.40
2022-08-19T11:11:31.478Z,24.40
2022-08-19T11:14:00.075Z,24.20
2022-08-19T11:16:31.006Z,24.40
2022-08-19T11:19:00.846Z,24.50
2022-08-19T11:21:31.509Z,24.70
2022-08-19T11:24:01.405Z,24.80
2022-08-19T11:26:31.357Z,25.00
2022-08-19T11:28:59.524Z,25.30
2022-08-19T11:31:29.240Z,25.60
2022-08-19T11:33:58.320Z,25.50
2022-08-19T11:36:26.370Z,25.60
2022-08-19T11:38:54.557Z,25.50
2022-08-19T11:41:24.007Z,25.50
2022-08-19T11:43:55.258Z,25.40
2022-08-19T11:46:24.038Z,25.40
2022-08-19T11:48:52.128Z,25.30
2022-08-19T11:51:22.524Z,25.30
2022-08-19T11:53:51.408Z,25.40
2022-08-19T11:56:19.731Z,25.50
2022-08-19T11:58:48.007Z,25.60
2022-08-19T12:01:19.057Z,25.50
2022-08-19T12:03:47.853Z,25.50
2022-08-19T12:06:17.273Z,25.50
2022-08-19T12:08:45.707Z,25.40
2022-08-19T12:11:14.689Z,25.60
2022-08-19T12:13:45.965Z,25.30
2022-08-19T12:16:16.582Z,25.20
2022-08-19T12:18:47.364Z,25.30
2022-08-19T12:21:15.485Z,25.10
2022-08-19T12:23:43.726Z,25.00
2022-08-19T12:26:12.108Z,25.30
2022-08-19T12:28:40.386Z,25.20
2022-08-19T12:31:08.404Z,25.30
2022-08-19T12:33:36.672Z,25.30
2022-08-19T12:36:07.685Z,25.30
2022-08-19T12:38:36.313Z,25.20
2022-08-19T12:41:06.450Z,25.20
2022-08-19T12:43:35.719Z,25.30
2022-08-19T12:46:05.249Z,25.10
2022-08-19T12:48:34.875Z,25.10
2022-08-19T12:51:03.663Z,25.20
2022-08-19T12:53:33.055Z,25.20
2022-08-19T12:56:02.613Z,25.20
2022-08-19T12:58:31.267Z,25.40
2022-08-19T13:00:59.361Z,25.30
2022-08-19T13:03:30.353Z,25.10
2022-08-19T13:05:58.513Z,25.30
2022-08-19T13:08:26.570Z,25.50
2022-08-19T13:10:56.617Z,25.60
2022-08-19T13:13:26.461Z,25.70
2022-08-19T13:15:54.479Z,25.80
2022-08-19T13:18:22.525Z,25.60
2022-08-19T13:20:52.793Z,25.50
2022-08-19T13:23:21.182Z,25.30
2022-08-19T13:25:59.691Z,25.40
2022-08-19T13:28:47.769Z,25.40
2022-08-19T13:31:35.668Z,25.30
2022-08-19T13:34:03.721Z,25.30
2022-08-19T13:36:31.747Z,25.30
2022-08-19T13:38:59.837Z,25.30
2022-08-19T13:41:29.599Z,25.30
2022-08-19T13:43:57.662Z,25.30
2022-08-19T13:46:25.822Z,25.40
2022-08-19T13:48:53.874Z,25.30
2022-08-19T13:51:21.902Z,25.20
2022-08-19T13:53:49.948Z,25.10
2022-08-19T13:56:24.200Z,25.00
2022-08-19T13:58:55.620Z,25.00
2022-08-19T14:01:27.564Z,25.00
2022-08-19T14:03:55.613Z,25.00
2022-08-19T14:06:24.156Z,24.90
2022-08-19T14:08:52.937Z,24.80
2022-08-19T14:11:21.074Z,24.90
2022-08-19T14:13:49.129Z,24.70
2022-08-19T14:16:18.729Z,24.70
2022-08-19T14:18:47.154Z,24.50
2022-08-19T14:21:19.111Z,24.70
2022-08-19T14:23:47.185Z,24.50
2022-08-19T14:26:16.918Z,24.60
2022-08-19T14:28:45.103Z,24.60
2022-08-19T14:31:13.770Z,24.70
2022-08-19T14:33:43.422Z,24.60
2022-08-19T14:36:11.499Z,24.60
2022-08-19T14:38:39.548Z,24.70
2022-08-19T14:41:09.781Z,24.80
2022-08-19T14:43:37.836Z,24.80
2022-08-19T14:46:06.062Z,25.00
2022-08-19T14:48:34.122Z,25.00
2022-08-19T14:51:03.501Z,25.00
2022-08-19T14:53:31.645Z,25.10
2022-08-19T14:55:59.793Z,25.00
2022-08-19T14:58:28.998Z,24.80
2022-08-19T15:00:59.377Z,24.80
2022-08-19T15:03:27.436Z,24.80
2022-08-19T15:05:56.501Z,24.70
2022-08-19T15:08:26.524Z,24.70
2022-08-19T15:10:54.744Z,24.70
2022-08-19T15:13:22.950Z,24.70
2022-08-19T15:15:52.493Z,24.60
2022-08-19T15:18:21.391Z,24.70
2022-08-19T15:20:49.473Z,24.70
2022-08-19T15:23:18.174Z,24.70
2022-08-19T15:25:47.796Z,24.70
2022-08-19T15:28:17.349Z,24.50
2022-08-19T15:30:45.465Z,24.50
2022-08-19T15:33:15.151Z,24.50
2022-08-19T15:35:43.465Z,24.20
2022-08-19T15:38:13.929Z,24.20
2022-08-19T15:40:42.135Z,24.10
2022-08-19T15:43:11.856Z,24.00
2022-08-19T15:45:40.329Z,24.00
2022-08-19T15:48:08.424Z,23.90
2022-08-19T15:50:36.800Z,24.00
2022-08-19T15:53:09.310Z,23.90
2022-08-19T15:55:43.952Z,23.90
2022-08-19T15:58:32.141Z,23.80
2022-08-19T16:01:20.865Z,23.80
2022-08-19T16:04:03.103Z,23.80
2022-08-19T16:06:31.809Z,23.70
2022-08-19T16:09:02.030Z,23.70
2022-08-19T16:11:31.408Z,23.70
2022-08-19T16:14:00.880Z,23.60
2022-08-19T16:16:33.507Z,23.50
2022-08-19T16:19:02.812Z,23.40
2022-08-19T16:21:33.289Z,23.40
2022-08-19T16:24:02.089Z,23.30
2022-08-19T16:26:31.147Z,23.30
2022-08-19T16:29:01.182Z,23.20
2022-08-19T16:31:29.596Z,23.30
2022-08-19T16:33:57.672Z,23.30
2022-08-19T16:36:25.700Z,23.10
2022-08-19T16:38:54.319Z,23.20
2022-08-19T16:41:22.446Z,23.20
2022-08-19T16:43:54.824Z,23.10
2022-08-19T16:46:26.806Z,23.20
2022-08-19T16:48:55.397Z,23.20
2022-08-19T16:51:23.715Z,23.20
2022-08-19T16:53:53.636Z,23.20
2022-08-19T16:56:21.731Z,23.20
2022-08-19T16:58:50.257Z,23.20
2022-08-19T17:01:18.881Z,23.10
2022-08-19T17:03:48.612Z,23.10
2022-08-19T17:06:18.537Z,23.10
2022-08-19T17:08:49.192Z,23.00
2022-08-19T17:11:18.905Z,23.00
2022-08-19T17:13:47.751Z,22.90
2022-08-19T17:16:16.297Z,22.90
2022-08-19T17:18:44.357Z,22.90
2022-08-19T17:21:13.833Z,22.90
2022-08-19T17:23:43.657Z,23.00
2022-08-19T17:26:17.910Z,23.00
2022-08-19T17:28:48.048Z,22.90
2022-08-19T17:31:16.282Z,22.90
2022-08-19T17:33:48.142Z,22.90
2022-08-19T17:36:18.347Z,22.90
2022-08-19T17:38:46.452Z,22.90
2022-08-19T17:41:14.643Z,22.90
2022-08-19T17:43:43.796Z,22.90
2022-08-19T17:46:17.854Z,22.90
2022-08-19T17:48:51.845Z,22.90
2022-08-19T17:51:23.413Z,22.90
2022-08-19T17:53:51.880Z,22.80
2022-08-19T17:56:20.389Z,22.70
2022-08-19T17:58:59.924Z,22.70
2022-08-19T18:01:30.733Z,22.70
2022-08-19T18:04:18.948Z,22.70
2022-08-19T18:06:53.356Z,22.70
2022-08-19T18:09:24.598Z,22.70
2022-08-19T18:11:53.931Z,22.70
2022-08-19T18:14:23.120Z,22.70
2022-08-19T18:16:54.308Z,22.60
2022-08-19T18:19:23.409Z,22.50
2022-08-19T18:21:52.794Z,22.50
2022-08-19T18:24:21.049Z,22.40
2022-08-19T18:26:49.352Z,22.50
2022-08-19T18:29:18.495Z,22.40
2022-08-19T18:31:48.324Z,22.40
2022-08-19T18:34:16.495Z,22.40
2022-08-19T18:36:53.866Z,22.40
2022-08-19T18:39:45.065Z,22.40
2022-08-19T18:42:41.023Z,22.40
2022-08-19T18:45:27.031Z,22.30
2022-08-19T18:48:24.243Z,22.40
2022-08-19T18:50:55.225Z,22.40
2022-08-19T18:53:23.678Z,22.40
2022-08-19T18:55:55.276Z,22.50
2022-08-19T18:58:26.442Z,22.40
2022-08-19T19:00:57.073Z,22.40
2022-08-19T19:03:25.908Z,22.40
2022-08-19T19:05:53.999Z,22.40
2022-08-19T19:08:27.276Z,22.50
2022-08-19T19:10:58.966Z,22.50
2022-08-19T19:13:28.647Z,22.40
2022-08-19T19:15:56.962Z,22.30
2022-08-19T19:18:25.207Z,22.40
2022-08-19T19:20:53.245Z,22.30
2022-08-19T19:23:21.771Z,22.30
2022-08-19T19:25:51.412Z,22.30
2022-08-19T19:28:25.698Z,22.30
2022-08-19T19:30:54.265Z,22.30
2022-08-19T19:33:22.374Z,22.20
2022-08-19T19:35:50.413Z,22.20
2022-08-19T19:38:18.478Z,22.20
2022-08-19T19:40:46.613Z,22.20
2022-08-19T19:43:18.487Z,22.20
2022-08-19T19:45:49.632Z,22.10
2022-08-19T19:48:17.681Z,22.10
2022-08-19T19:50:45.822Z,22.10
2022-08-19T19:53:22.142Z,22.10
2022-08-19T19:55:51.618Z,22.00
2022-08-19T19:58:22.762Z,22.00
2022-08-19T20:00:58.991Z,22.10
2022-08-19T20:03:27.367Z,22.00
2022-08-19T20:05:59.213Z,22.00
2022-08-19T20:08:45.017Z,22.00
2022-08-19T20:11:13.111Z,22.00
2022-08-19T20:13:41.442Z,22.00
2022-08-19T20:16:10.817Z,22.00
2022-08-19T20:18:38.954Z,22.00
2022-08-19T20:21:07.366Z,22.00
2022-08-19T20:23:35.412Z,22.00
2022-08-19T20:26:03.468Z,22.00
2022-08-19T20:28:31.978Z,22.10
2022-08-19T20:31:00.421Z,22.10
2022-08-19T20:33:31.504Z,22.00
2022-08-19T20:35:59.537Z,22.00
2022-08-19T20:38:27.675Z,22.00
2022-08-19T20:40:55.694Z,22.00
2022-08-19T20:43:24.617Z,21.90
2022-08-19T20:45:52.698Z,21.90
2022-08-19T20:48:20.757Z,21.90
2022-08-19T20:50:50.138Z,21.90
2022-08-19T20:53:19.021Z,21.90
2022-08-19T20:55:49.226Z,21.90
2022-08-19T20:58:17.872Z,21.90
2022-08-19T21:00:46.234Z,21.90
2022-08-19T21:03:15.379Z,21.90
2022-08-19T21:05:43.594Z,21.90
2022-08-19T21:08:13.011Z,21.80
2022-08-19T21:10:42.476Z,21.90
2022-08-19T21:13:10.726Z,21.90
2022-08-19T21:15:40.696Z,21.80
2022-08-19T21:18:09.001Z,21.80
2022-08-19T21:20:37.038Z,21.90
2022-08-19T21:23:05.427Z,21.90
2022-08-19T21:25:34.927Z,21.80
2022-08-19T21:28:04.228Z,21.70
2022-08-19T21:30:32.258Z,21.60
2022-08-19T21:33:00.839Z,21.60
2022-08-19T21:35:28.875Z,21.60
2022-08-19T21:37:57.611Z,21.50
2022-08-19T21:40:25.756Z,21.60
2022-08-19T21:42:55.377Z,21.50
2022-08-19T21:45:23.853Z,21.50
2022-08-19T21:47:51.928Z,21.50
2022-08-19T21:50:20.088Z,21.50
2022-08-19T21:52:48.145Z,21.40
2022-08-19T21:55:17.225Z,21.40
2022-08-19T21:57:45.268Z,21.40
2022-08-19T22:00:17.183Z,21.40
2022-08-19T22:02:47.148Z,21.40
2022-08-19T22:05:15.224Z,21.40
2022-08-19T22:07:43.829Z,21.40
2022-08-19T22:10:11.861Z,21.50
2022-08-19T22:12:47.266Z,21.50
2022-08-19T22:15:21.540Z,21.50
2022-08-19T22:17:49.912Z,21.50
2022-08-19T22:20:20.512Z,21.50
2022-08-19T22:22:50.427Z,21.50
2022-08-19T22:25:29.981Z,21.50
2022-08-19T22:28:00.622Z,21.50
2022-08-19T22:30:33.759Z,21.50
2022-08-19T22:33:05.583Z,21.50
2022-08-19T22:35:35.886Z,21.60
2022-08-19T22:38:06.443Z,21.60
2022-08-19T22:40:36.582Z,21.60
2022-08-19T22:43:06.475Z,21.60
2022-08-19T22:45:36.327Z,21.60
2022-08-19T22:48:04.545Z,21.60
2022-08-19T22:50:32.559Z,21.60
2022-08-19T22:53:00.092Z,21.70
2022-08-19T22:55:28.180Z,21.60
2022-08-19T22:57:56.482Z,21.60
2022-08-19T23:00:26.938Z,21.60
2022-08-19T23:02:56.733Z,21.50
2022-08-19T23:05:25.803Z,21.50
2022-08-19T23:07:57.430Z,21.50
2022-08-19T23:10:27.134Z,21.50
2022-08-19T23:12:56.854Z,21.50
2022-08-19T23:15:26.715Z,21.50
2022-08-19T23:17:57.057Z,21.50
2022-08-19T23:20:27.305Z,21.50
2022-08-19T23:22:56.106Z,21.50
2022-08-19T23:25:25.780Z,21.50
2022-08-19T23:28:11.603Z,21.40
2022-08-19T23:30:43.666Z,21.40
2022-08-19T23:33:18.729Z,21.30
2022-08-19T23:35:46.758Z,21.30
2022-08-19T23:38:14.852Z,21.30
2022-08-19T23:40:42.878Z,21.20
2022-08-19T23:43:14.731Z,21.20
2022-08-19T23:45:51.199Z,21.20
2022-08-19T23:48:20.827Z,21.20
2022-08-19T23:50:48.853Z,21.20
2022-08-19T23:53:16.943Z,21.20
2022-08-19T23:55:46.437Z,21.30
2022-08-19T23:58:15.828Z,21.20
